sensor_id;sensor_type;location;lat;lon;timestamp;P1;durP1;ratioP1;P2;durP2;ratioP2
64208;SDS011;50527;52.414;13.226;2024-01-15T00:00:37;3.10;;;1.60;;
64208;SDS011;50527;52.414;13.226;2024-01-15T00:03:03;6.00;;;1.58;;
64208;SDS011;50527;52.414;13.226;2024-01-15T00:05:29;3.38;;;1.20;;
64208;SDS011;50527;52.414;13.226;2024-01-15T00:07:55;3.70;;;1.50;;
64208;SDS011;50527;52.414;13.226;2024-01-15T00:10:20;3.92;;;1.45;;
64208;SDS011;50527;52.414;13.226;2024-01-15T00:12:46;3.67;;;1.42;;
64208;SDS011;50527;52.414;13.226;2024-01-15T00:15:11;3.15;;;1.50;;
64208;SDS011;50527;52.414;13.226;2024-01-15T00:17:37;4.70;;;1.60;;
64208;SDS011;50527;52.414;13.226;2024-01-15T00:20:02;3.05;;;1.63;;
64208;SDS011;50527;52.414;13.226;2024-01-15T00:22:28;4.18;;;1.30;;
64208;SDS011;50527;52.414;13.226;2024-01-15T00:24:54;4.07;;;1.35;;
64208;SDS011;50527;52.414;13.226;2024-01-15T00:27:20;4.10;;;1.63;;
64208;SDS011;50527;52.414;13.226;2024-01-15T00:29:45;7.97;;;1.50;;
64208;SDS011;50527;52.414;13.226;2024-01-15T00:32:11;3.83;;;1.80;;
64208;SDS011;50527;52.414;13.226;2024-01-15T00:34:36;3.83;;;1.60;;
64208;SDS011;50527;52.414;13.226;2024-01-15T00:37:02;7.68;;;2.17;;
64208;SDS011;50527;52.414;13.226;2024-01-15T00:39:28;5.53;;;1.70;;
64208;SDS011;50527;52.414;13.226;2024-01-15T00:41:54;5.18;;;1.48;;
64208;SDS011;50527;52.414;13.226;2024-01-15T00:44:19;7.28;;;1.60;;
64208;SDS011;50527;52.414;13.226;2024-01-15T00:46:45;5.70;;;1.60;;
64208;SDS011;50527;52.414;13.226;2024-01-15T00:49:11;5.20;;;1.70;;
64208;SDS011;50527;52.414;13.226;2024-01-15T00:51:38;4.18;;;1.30;;
64208;SDS011;50527;52.414;13.226;2024-01-15T00:54:04;5.68;;;1.77;;
64208;SDS011;50527;52.414;13.226;2024-01-15T00:56:29;3.58;;;1.35;;
64208;SDS011;50527;52.414;13.226;2024-01-15T00:58:55;2.45;;;0.95;;
64208;SDS011;50527;52.414;13.226;2024-01-15T01:01:20;4.70;;;1.38;;
64208;SDS011;50527;52.414;13.226;2024-01-15T01:03:46;4.55;;;1.42;;
64208;SDS011;50527;52.414;13.226;2024-01-15T01:06:11;5.20;;;1.70;;
64208;SDS011;50527;52.414;13.226;2024-01-15T01:08:37;2.70;;;1.10;;
64208;SDS011;50527;52.414;13.226;2024-01-15T01:11:04;5.90;;;1.40;;
64208;SDS011;50527;52.414;13.226;2024-01-15T01:13:31;3.15;;;1.75;;
64208;SDS011;50527;52.414;13.226;2024-01-15T01:15:56;4.55;;;1.40;;
64208;SDS011;50527;52.414;13.226;2024-01-15T01:18:23;5.57;;;1.55;;
64208;SDS011;50527;52.414;13.226;2024-01-15T01:20:48;4.40;;;1.63;;
64208;SDS011;50527;52.414;13.226;2024-01-15T01:23:14;4.53;;;1.63;;
64208;SDS011;50527;52.414;13.226;2024-01-15T01:25:39;3.15;;;1.35;;
64208;SDS011;50527;52.414;13.226;2024-01-15T01:28:05;5.07;;;1.48;;
64208;SDS011;50527;52.414;13.226;2024-01-15T01:30:30;3.22;;;1.30;;
64208;SDS011;50527;52.414;13.226;2024-01-15T01:32:56;5.55;;;2.10;;
64208;SDS011;50527;52.414;13.226;2024-01-15T01:35:22;3.85;;;1.83;;
64208;SDS011;50527;52.414;13.226;2024-01-15T01:37:47;8.38;;;1.55;;
64208;SDS011;50527;52.414;13.226;2024-01-15T01:40:13;3.97;;;1.27;;
64208;SDS011;50527;52.414;13.226;2024-01-15T01:42:38;2.90;;;1.30;;
64208;SDS011;50527;52.414;13.226;2024-01-15T01:45:04;3.83;;;1.63;;
64208;SDS011;50527;52.414;13.226;2024-01-15T01:47:30;3.80;;;1.55;;
64208;SDS011;50527;52.414;13.226;2024-01-15T01:49:56;3.85;;;1.48;;
64208;SDS011;50527;52.414;13.226;2024-01-15T01:52:22;8.25;;;1.75;;
64208;SDS011;50527;52.414;13.226;2024-01-15T01:54:48;6.00;;;1.75;;
64208;SDS011;50527;52.414;13.226;2024-01-15T01:57:14;6.10;;;1.45;;
64208;SDS011;50527;52.414;13.226;2024-01-15T01:59:40;3.65;;;1.70;;
64208;SDS011;50527;52.414;13.226;2024-01-15T02:02:06;4.20;;;1.55;;
64208;SDS011;50527;52.414;13.226;2024-01-15T02:04:32;4.20;;;1.75;;
64208;SDS011;50527;52.414;13.226;2024-01-15T02:06:59;4.53;;;1.80;;
64208;SDS011;50527;52.414;13.226;2024-01-15T02:09:25;3.45;;;1.50;;
64208;SDS011;50527;52.414;13.226;2024-01-15T02:11:50;7.60;;;1.70;;
64208;SDS011;50527;52.414;13.226;2024-01-15T02:14:16;3.95;;;1.63;;
64208;SDS011;50527;52.414;13.226;2024-01-15T02:16:42;5.22;;;1.40;;
64208;SDS011;50527;52.414;13.226;2024-01-15T02:19:14;7.90;;;2.00;;
64208;SDS011;50527;52.414;13.226;2024-01-15T02:21:40;8.52;;;1.67;;
64208;SDS011;50527;52.414;13.226;2024-01-15T02:24:06;4.20;;;1.27;;
64208;SDS011;50527;52.414;13.226;2024-01-15T02:26:32;4.13;;;1.40;;
64208;SDS011;50527;52.414;13.226;2024-01-15T02:29:00;5.72;;;1.50;;
64208;SDS011;50527;52.414;13.226;2024-01-15T02:31:27;5.65;;;1.67;;
64208;SDS011;50527;52.414;13.226;2024-01-15T02:33:52;3.88;;;1.27;;
64208;SDS011;50527;52.414;13.226;2024-01-15T02:36:18;3.33;;;1.25;;
64208;SDS011;50527;52.414;13.226;2024-01-15T02:38:43;3.67;;;1.50;;
64208;SDS011;50527;52.414;13.226;2024-01-15T02:41:09;5.43;;;1.17;;
64208;SDS011;50527;52.414;13.226;2024-01-15T02:43:34;4.53;;;1.85;;
64208;SDS011;50527;52.414;13.226;2024-01-15T02:46:00;4.60;;;1.60;;
64208;SDS011;50527;52.414;13.226;2024-01-15T02:48:25;4.20;;;1.50;;
64208;SDS011;50527;52.414;13.226;2024-01-15T02:50:51;3.22;;;1.27;;
64208;SDS011;50527;52.414;13.226;2024-01-15T02:53:16;4.57;;;1.60;;
64208;SDS011;50527;52.414;13.226;2024-01-15T02:55:42;3.63;;;1.38;;
64208;SDS011;50527;52.414;13.226;2024-01-15T02:58:07;3.08;;;1.15;;
64208;SDS011;50527;52.414;13.226;2024-01-15T03:00:33;3.17;;;1.23;;
64208;SDS011;50527;52.414;13.226;2024-01-15T03:02:59;2.55;;;1.30;;
64208;SDS011;50527;52.414;13.226;2024-01-15T03:05:24;3.13;;;1.20;;
64208;SDS011;50527;52.414;13.226;2024-01-15T03:07:50;3.33;;;1.30;;
64208;SDS011;50527;52.414;13.226;2024-01-15T03:10:15;3.80;;;0.65;;
64208;SDS011;50527;52.414;13.226;2024-01-15T03:12:41;4.07;;;1.55;;
64208;SDS011;50527;52.414;13.226;2024-01-15T03:15:06;2.78;;;0.90;;
64208;SDS011;50527;52.414;13.226;2024-01-15T03:17:32;3.97;;;1.25;;
64208;SDS011;50527;52.414;13.226;2024-01-15T03:19:58;5.30;;;1.00;;
64208;SDS011;50527;52.414;13.226;2024-01-15T03:22:23;3.97;;;1.00;;
64208;SDS011;50527;52.414;13.226;2024-01-15T03:24:49;5.20;;;1.27;;
64208;SDS011;50527;52.414;13.226;2024-01-15T03:27:14;7.03;;;1.20;;
64208;SDS011;50527;52.414;13.226;2024-01-15T03:29:40;3.33;;;1.08;;
64208;SDS011;50527;52.414;13.226;2024-01-15T03:32:06;2.83;;;1.00;;
64208;SDS011;50527;52.414;13.226;2024-01-15T03:34:31;2.15;;;0.93;;
64208;SDS011;50527;52.414;13.226;2024-01-15T03:36:57;2.90;;;1.02;;
64208;SDS011;50527;52.414;13.226;2024-01-15T03:39:24;3.63;;;1.00;;
64208;SDS011;50527;52.414;13.226;2024-01-15T03:41:50;2.08;;;1.13;;
64208;SDS011;50527;52.414;13.226;2024-01-15T03:44:15;5.22;;;1.10;;
64208;SDS011;50527;52.414;13.226;2024-01-15T03:46:41;3.25;;;1.10;;
64208;SDS011;50527;52.414;13.226;2024-01-15T03:49:06;3.58;;;0.88;;
64208;SDS011;50527;52.414;13.226;2024-01-15T03:51:32;1.65;;;0.60;;
64208;SDS011;50527;52.414;13.226;2024-01-15T03:53:57;4.68;;;0.95;;
64208;SDS011;50527;52.414;13.226;2024-01-15T03:56:23;3.58;;;0.82;;
64208;SDS011;50527;52.414;13.226;2024-01-15T03:58:48;3.22;;;0.90;;
64208;SDS011;50527;52.414;13.226;2024-01-15T04:01:14;1.88;;;0.77;;
64208;SDS011;50527;52.414;13.226;2024-01-15T04:03:39;2.33;;;0.70;;
64208;SDS011;50527;52.414;13.226;2024-01-15T04:06:05;3.13;;;0.95;;
64208;SDS011;50527;52.414;13.226;2024-01-15T04:08:31;2.35;;;0.65;;
64208;SDS011;50527;52.414;13.226;2024-01-15T04:10:56;1.75;;;0.70;;
64208;SDS011;50527;52.414;13.226;2024-01-15T04:13:22;2.20;;;0.90;;
64208;SDS011;50527;52.414;13.226;2024-01-15T04:15:47;3.00;;;1.00;;
64208;SDS011;50527;52.414;13.226;2024-01-15T04:18:15;2.35;;;0.80;;
64208;SDS011;50527;52.414;13.226;2024-01-15T04:20:41;4.68;;;0.80;;
64208;SDS011;50527;52.414;13.226;2024-01-15T04:23:07;1.90;;;0.73;;
64208;SDS011;50527;52.414;13.226;2024-01-15T04:25:32;1.50;;;0.70;;
64208;SDS011;50527;52.414;13.226;2024-01-15T04:27:58;2.15;;;0.70;;
64208;SDS011;50527;52.414;13.226;2024-01-15T04:30:24;3.90;;;0.60;;
64208;SDS011;50527;52.414;13.226;2024-01-15T04:32:49;4.53;;;0.85;;
64208;SDS011;50527;52.414;13.226;2024-01-15T04:35:15;1.70;;;0.50;;
64208;SDS011;50527;52.414;13.226;2024-01-15T04:37:40;3.88;;;0.82;;
64208;SDS011;50527;52.414;13.226;2024-01-15T04:40:06;1.42;;;0.50;;
64208;SDS011;50527;52.414;13.226;2024-01-15T04:42:32;3.88;;;0.85;;
64208;SDS011;50527;52.414;13.226;2024-01-15T04:44:58;1.42;;;0.55;;
64208;SDS011;50527;52.414;13.226;2024-01-15T04:47:23;4.53;;;0.50;;
64208;SDS011;50527;52.414;13.226;2024-01-15T04:49:49;3.10;;;0.68;;
64208;SDS011;50527;52.414;13.226;2024-01-15T04:52:15;3.28;;;0.63;;
64208;SDS011;50527;52.414;13.226;2024-01-15T04:54:40;2.47;;;0.70;;
64208;SDS011;50527;52.414;13.226;2024-01-15T04:57:06;4.18;;;0.70;;
64208;SDS011;50527;52.414;13.226;2024-01-15T04:59:31;1.83;;;0.60;;
64208;SDS011;50527;52.414;13.226;2024-01-15T05:01:57;3.05;;;0.60;;
64208;SDS011;50527;52.414;13.226;2024-01-15T05:04:22;3.55;;;0.68;;
64208;SDS011;50527;52.414;13.226;2024-01-15T05:06:49;4.78;;;0.80;;
64208;SDS011;50527;52.414;13.226;2024-01-15T05:09:15;3.67;;;0.50;;
64208;SDS011;50527;52.414;13.226;2024-01-15T05:11:41;1.30;;;0.40;;
64208;SDS011;50527;52.414;13.226;2024-01-15T05:14:06;2.17;;;0.82;;
64208;SDS011;50527;52.414;13.226;2024-01-15T05:16:32;1.80;;;0.65;;
64208;SDS011;50527;52.414;13.226;2024-01-15T05:18:57;1.92;;;0.60;;
64208;SDS011;50527;52.414;13.226;2024-01-15T05:21:23;2.25;;;0.30;;
64208;SDS011;50527;52.414;13.226;2024-01-15T05:23:48;1.67;;;0.60;;
64208;SDS011;50527;52.414;13.226;2024-01-15T05:26:14;5.53;;;0.47;;
64208;SDS011;50527;52.414;13.226;2024-01-15T05:28:42;1.85;;;0.73;;
64208;SDS011;50527;52.414;13.226;2024-01-15T05:31:08;3.50;;;0.88;;
64208;SDS011;50527;52.414;13.226;2024-01-15T05:33:34;5.15;;;0.75;;
64208;SDS011;50527;52.414;13.226;2024-01-15T05:36:00;4.63;;;0.60;;
64208;SDS011;50527;52.414;13.226;2024-01-15T05:38:25;2.03;;;0.70;;
64208;SDS011;50527;52.414;13.226;2024-01-15T05:40:51;4.70;;;0.47;;
64208;SDS011;50527;52.414;13.226;2024-01-15T05:43:16;0.47;;;0.20;;
64208;SDS011;50527;52.414;13.226;2024-01-15T05:45:42;1.88;;;0.50;;
64208;SDS011;50527;52.414;13.226;2024-01-15T05:48:09;3.65;;;0.60;;
64208;SDS011;50527;52.414;13.226;2024-01-15T05:50:35;6.18;;;0.47;;
64208;SDS011;50527;52.414;13.226;2024-01-15T05:53:00;2.13;;;0.80;;
64208;SDS011;50527;52.414;13.226;2024-01-15T05:55:27;0.60;;;0.30;;
64208;SDS011;50527;52.414;13.226;2024-01-15T05:57:53;3.03;;;0.75;;
64208;SDS011;50527;52.414;13.226;2024-01-15T06:00:18;2.30;;;0.50;;
64208;SDS011;50527;52.414;13.226;2024-01-15T06:02:44;3.13;;;0.50;;
64208;SDS011;50527;52.414;13.226;2024-01-15T06:05:09;2.50;;;0.40;;
64208;SDS011;50527;52.414;13.226;2024-01-15T06:07:35;3.80;;;0.98;;
64208;SDS011;50527;52.414;13.226;2024-01-15T06:10:01;5.53;;;0.57;;
64208;SDS011;50527;52.414;13.226;2024-01-15T06:12:28;9.32;;;0.50;;
64208;SDS011;50527;52.414;13.226;2024-01-15T06:14:53;2.75;;;0.50;;
64208;SDS011;50527;52.414;13.226;2024-01-15T06:17:19;2.97;;;0.30;;
64208;SDS011;50527;52.414;13.226;2024-01-15T06:19:45;6.68;;;0.50;;
64208;SDS011;50527;52.414;13.226;2024-01-15T06:22:10;1.67;;;0.32;;
64208;SDS011;50527;52.414;13.226;2024-01-15T06:24:36;4.13;;;0.52;;
64208;SDS011;50527;52.414;13.226;2024-01-15T06:27:01;0.45;;;0.20;;
64208;SDS011;50527;52.414;13.226;2024-01-15T06:29:27;4.97;;;0.60;;
64208;SDS011;50527;52.414;13.226;2024-01-15T06:31:53;2.85;;;0.65;;
64208;SDS011;50527;52.414;13.226;2024-01-15T06:34:18;3.63;;;0.30;;
64208;SDS011;50527;52.414;13.226;2024-01-15T06:36:44;5.55;;;0.60;;
64208;SDS011;50527;52.414;13.226;2024-01-15T06:39:10;2.45;;;0.50;;
64208;SDS011;50527;52.414;13.226;2024-01-15T06:41:35;5.50;;;0.30;;
64208;SDS011;50527;52.414;13.226;2024-01-15T06:44:08;4.80;;;0.32;;
64208;SDS011;50527;52.414;13.226;2024-01-15T06:46:35;2.35;;;0.47;;
64208;SDS011;50527;52.414;13.226;2024-01-15T06:49:01;6.07;;;0.80;;
64208;SDS011;50527;52.414;13.226;2024-01-15T06:51:26;0.60;;;0.15;;
64208;SDS011;50527;52.414;13.226;2024-01-15T06:53:51;4.65;;;0.50;;
64208;SDS011;50527;52.414;13.226;2024-01-15T06:56:17;2.22;;;0.40;;
64208;SDS011;50527;52.414;13.226;2024-01-15T06:58:42;2.30;;;0.38;;
64208;SDS011;50527;52.414;13.226;2024-01-15T07:01:08;0.13;;;0.00;;
64208;SDS011;50527;52.414;13.226;2024-01-15T07:03:34;2.20;;;0.43;;
64208;SDS011;50527;52.414;13.226;2024-01-15T07:05:59;3.08;;;0.30;;
64208;SDS011;50527;52.414;13.226;2024-01-15T07:08:25;0.90;;;0.22;;
64208;SDS011;50527;52.414;13.226;2024-01-15T07:10:50;3.30;;;0.40;;
64208;SDS011;50527;52.414;13.226;2024-01-15T07:13:16;2.60;;;0.35;;
64208;SDS011;50527;52.414;13.226;2024-01-15T07:15:42;6.47;;;0.70;;
64208;SDS011;50527;52.414;13.226;2024-01-15T07:18:08;4.75;;;0.20;;
64208;SDS011;50527;52.414;13.226;2024-01-15T07:20:33;2.08;;;0.20;;
64208;SDS011;50527;52.414;13.226;2024-01-15T07:22:59;10.88;;;0.65;;
64208;SDS011;50527;52.414;13.226;2024-01-15T07:25:25;6.78;;;0.60;;
64208;SDS011;50527;52.414;13.226;2024-01-15T07:27:51;0.17;;;0.10;;
64208;SDS011;50527;52.414;13.226;2024-01-15T07:30:16;5.30;;;0.32;;
64208;SDS011;50527;52.414;13.226;2024-01-15T07:32:42;3.30;;;0.38;;
64208;SDS011;50527;52.414;13.226;2024-01-15T07:35:08;5.10;;;0.32;;
64208;SDS011;50527;52.414;13.226;2024-01-15T07:37:33;3.95;;;0.25;;
64208;SDS011;50527;52.414;13.226;2024-01-15T07:39:59;2.65;;;0.40;;
64208;SDS011;50527;52.414;13.226;2024-01-15T07:42:25;3.83;;;0.28;;
64208;SDS011;50527;52.414;13.226;2024-01-15T07:44:50;2.83;;;0.57;;
64208;SDS011;50527;52.414;13.226;2024-01-15T07:47:16;3.42;;;0.32;;
64208;SDS011;50527;52.414;13.226;2024-01-15T07:49:42;0.65;;;0.22;;
64208;SDS011;50527;52.414;13.226;2024-01-15T07:52:07;2.33;;;0.32;;
64208;SDS011;50527;52.414;13.226;2024-01-15T07:54:33;1.45;;;0.32;;
64208;SDS011;50527;52.414;13.226;2024-01-15T07:56:59;2.63;;;0.32;;
64208;SDS011;50527;52.414;13.226;2024-01-15T07:59:26;4.55;;;0.30;;
64208;SDS011;50527;52.414;13.226;2024-01-15T08:01:52;3.88;;;0.40;;
64208;SDS011;50527;52.414;13.226;2024-01-15T08:04:18;1.92;;;0.40;;
64208;SDS011;50527;52.414;13.226;2024-01-15T08:06:44;6.32;;;0.80;;
64208;SDS011;50527;52.414;13.226;2024-01-15T08:09:10;2.58;;;0.70;;
64208;SDS011;50527;52.414;13.226;2024-01-15T08:11:38;1.48;;;0.28;;
64208;SDS011;50527;52.414;13.226;2024-01-15T08:14:05;0.95;;;0.13;;
64208;SDS011;50527;52.414;13.226;2024-01-15T08:16:31;8.40;;;0.55;;
64208;SDS011;50527;52.414;13.226;2024-01-15T08:18:56;1.50;;;0.30;;
64208;SDS011;50527;52.414;13.226;2024-01-15T08:21:22;1.00;;;0.20;;
64208;SDS011;50527;52.414;13.226;2024-01-15T08:23:47;4.82;;;0.22;;
64208;SDS011;50527;52.414;13.226;2024-01-15T08:26:13;3.65;;;0.28;;
64208;SDS011;50527;52.414;13.226;2024-01-15T08:28:38;1.98;;;0.20;;
64208;SDS011;50527;52.414;13.226;2024-01-15T08:31:04;2.28;;;0.30;;
64208;SDS011;50527;52.414;13.226;2024-01-15T08:33:29;0.75;;;0.15;;
64208;SDS011;50527;52.414;13.226;2024-01-15T08:35:55;1.35;;;0.20;;
64208;SDS011;50527;52.414;13.226;2024-01-15T08:38:20;3.08;;;0.30;;
64208;SDS011;50527;52.414;13.226;2024-01-15T08:40:46;4.72;;;0.40;;
64208;SDS011;50527;52.414;13.226;2024-01-15T08:43:12;2.10;;;0.50;;
64208;SDS011;50527;52.414;13.226;2024-01-15T08:45:38;1.02;;;0.22;;
64208;SDS011;50527;52.414;13.226;2024-01-15T08:48:03;1.38;;;0.20;;
64208;SDS011;50527;52.414;13.226;2024-01-15T08:50:29;3.65;;;0.40;;
64208;SDS011;50527;52.414;13.226;2024-01-15T08:52:56;1.05;;;0.20;;
64208;SDS011;50527;52.414;13.226;2024-01-15T08:55:22;2.58;;;0.30;;
64208;SDS011;50527;52.414;13.226;2024-01-15T08:57:48;4.22;;;0.30;;
64208;SDS011;50527;52.414;13.226;2024-01-15T09:00:14;1.50;;;0.35;;
64208;SDS011;50527;52.414;13.226;2024-01-15T09:02:40;0.90;;;0.25;;
64208;SDS011;50527;52.414;13.226;2024-01-15T09:05:05;1.50;;;0.38;;
64208;SDS011;50527;52.414;13.226;2024-01-15T09:07:31;7.13;;;0.65;;
64208;SDS011;50527;52.414;13.226;2024-01-15T09:09:57;4.68;;;0.40;;
64208;SDS011;50527;52.414;13.226;2024-01-15T09:12:25;4.43;;;0.40;;
64208;SDS011;50527;52.414;13.226;2024-01-15T09:14:51;4.30;;;0.55;;
64208;SDS011;50527;52.414;13.226;2024-01-15T09:17:17;4.75;;;0.65;;
64208;SDS011;50527;52.414;13.226;2024-01-15T09:19:42;5.20;;;0.47;;
64208;SDS011;50527;52.414;13.226;2024-01-15T09:22:09;3.97;;;0.40;;
64208;SDS011;50527;52.414;13.226;2024-01-15T09:24:34;0.93;;;0.15;;
64208;SDS011;50527;52.414;13.226;2024-01-15T09:27:00;2.03;;;0.40;;
64208;SDS011;50527;52.414;13.226;2024-01-15T09:29:26;1.73;;;0.30;;
64208;SDS011;50527;52.414;13.226;2024-01-15T09:31:51;4.07;;;0.45;;
64208;SDS011;50527;52.414;13.226;2024-01-15T09:34:17;3.42;;;0.68;;
64208;SDS011;50527;52.414;13.226;2024-01-15T09:36:43;3.30;;;0.20;;
64208;SDS011;50527;52.414;13.226;2024-01-15T09:39:09;1.95;;;0.30;;
64208;SDS011;50527;52.414;13.226;2024-01-15T09:41:36;1.90;;;0.40;;
64208;SDS011;50527;52.414;13.226;2024-01-15T09:44:02;1.00;;;0.45;;
64208;SDS011;50527;52.414;13.226;2024-01-15T09:46:28;2.50;;;0.22;;
64208;SDS011;50527;52.414;13.226;2024-01-15T09:48:55;4.10;;;0.40;;
64208;SDS011;50527;52.414;13.226;2024-01-15T09:51:20;3.13;;;0.30;;
64208;SDS011;50527;52.414;13.226;2024-01-15T09:53:46;1.05;;;0.20;;
64208;SDS011;50527;52.414;13.226;2024-01-15T09:56:13;2.17;;;0.20;;
64208;SDS011;50527;52.414;13.226;2024-01-15T09:58:39;2.17;;;0.38;;
64208;SDS011;50527;52.414;13.226;2024-01-15T10:01:07;3.35;;;0.55;;
64208;SDS011;50527;52.414;13.226;2024-01-15T10:03:34;0.40;;;0.20;;
64208;SDS011;50527;52.414;13.226;2024-01-15T10:06:00;1.23;;;0.28;;
64208;SDS011;50527;52.414;13.226;2024-01-15T10:08:27;4.35;;;0.22;;
64208;SDS011;50527;52.414;13.226;2024-01-15T10:10:53;1.95;;;0.40;;
64208;SDS011;50527;52.414;13.226;2024-01-15T10:13:19;0.80;;;0.30;;
64208;SDS011;50527;52.414;13.226;2024-01-15T10:15:45;1.65;;;0.38;;
64208;SDS011;50527;52.414;13.226;2024-01-15T10:18:14;2.08;;;0.45;;
64208;SDS011;50527;52.414;13.226;2024-01-15T10:20:40;1.27;;;0.17;;
64208;SDS011;50527;52.414;13.226;2024-01-15T10:23:05;0.80;;;0.22;;
64208;SDS011;50527;52.414;13.226;2024-01-15T10:25:31;1.05;;;0.20;;
64208;SDS011;50527;52.414;13.226;2024-01-15T10:28:00;0.32;;;0.10;;
64208;SDS011;50527;52.414;13.226;2024-01-15T10:30:27;1.92;;;0.38;;
64208;SDS011;50527;52.414;13.226;2024-01-15T10:32:59;2.38;;;0.32;;
64208;SDS011;50527;52.414;13.226;2024-01-15T10:35:32;0.55;;;0.15;;
64208;SDS011;50527;52.414;13.226;2024-01-15T10:37:59;0.47;;;0.20;;
64208;SDS011;50527;52.414;13.226;2024-01-15T10:40:25;1.48;;;0.15;;
64208;SDS011;50527;52.414;13.226;2024-01-15T10:42:51;1.65;;;0.20;;
64208;SDS011;50527;52.414;13.226;2024-01-15T10:45:17;1.65;;;0.30;;
64208;SDS011;50527;52.414;13.226;2024-01-15T10:47:42;2.22;;;0.30;;
64208;SDS011;50527;52.414;13.226;2024-01-15T10:50:09;1.75;;;0.20;;
64208;SDS011;50527;52.414;13.226;2024-01-15T10:52:35;1.20;;;0.22;;
64208;SDS011;50527;52.414;13.226;2024-01-15T10:55:02;6.53;;;0.40;;
64208;SDS011;50527;52.414;13.226;2024-01-15T10:57:29;0.32;;;0.10;;
64208;SDS011;50527;52.414;13.226;2024-01-15T10:59:55;0.98;;;0.30;;
64208;SDS011;50527;52.414;13.226;2024-01-15T11:02:21;3.42;;;0.35;;
64208;SDS011;50527;52.414;13.226;2024-01-15T11:04:47;2.97;;;0.30;;
64208;SDS011;50527;52.414;13.226;2024-01-15T11:07:13;1.95;;;0.20;;
64208;SDS011;50527;52.414;13.226;2024-01-15T11:09:39;2.35;;;0.45;;
64208;SDS011;50527;52.414;13.226;2024-01-15T11:14:40;0.20;;;0.20;;
64208;SDS011;50527;52.414;13.226;2024-01-15T11:17:13;1.20;;;0.40;;
64208;SDS011;50527;52.414;13.226;2024-01-15T11:19:48;4.55;;;0.20;;
64208;SDS011;50527;52.414;13.226;2024-01-15T11:25:01;2.47;;;0.50;;
64208;SDS011;50527;52.414;13.226;2024-01-15T11:27:40;1.00;;;0.25;;
64208;SDS011;50527;52.414;13.226;2024-01-15T11:30:16;1.42;;;0.38;;
64208;SDS011;50527;52.414;13.226;2024-01-15T11:32:45;0.20;;;0.20;;
64208;SDS011;50527;52.414;13.226;2024-01-15T11:35:12;1.80;;;0.32;;
64208;SDS011;50527;52.414;13.226;2024-01-15T11:40:19;0.50;;;0.30;;
64208;SDS011;50527;52.414;13.226;2024-01-15T11:42:46;3.65;;;0.45;;
64208;SDS011;50527;52.414;13.226;2024-01-15T11:45:12;4.10;;;0.45;;
64208;SDS011;50527;52.414;13.226;2024-01-15T11:50:11;3.15;;;0.38;;
64208;SDS011;50527;52.414;13.226;2024-01-15T11:52:37;1.52;;;0.30;;
64208;SDS011;50527;52.414;13.226;2024-01-15T11:55:19;1.40;;;0.35;;
64208;SDS011;50527;52.414;13.226;2024-01-15T11:57:52;0.63;;;0.22;;
64208;SDS011;50527;52.414;13.226;2024-01-15T12:00:21;0.55;;;0.30;;
64208;SDS011;50527;52.414;13.226;2024-01-15T12:02:48;0.20;;;0.15;;
64208;SDS011;50527;52.414;13.226;2024-01-15T12:05:16;2.58;;;0.38;;
64208;SDS011;50527;52.414;13.226;2024-01-15T12:07:43;1.85;;;0.43;;
64208;SDS011;50527;52.414;13.226;2024-01-15T12:10:13;1.15;;;0.43;;
64208;SDS011;50527;52.414;13.226;2024-01-15T12:15:11;0.60;;;0.30;;
64208;SDS011;50527;52.414;13.226;2024-01-15T12:17:38;0.38;;;0.10;;
64208;SDS011;50527;52.414;13.226;2024-01-15T12:20:04;0.45;;;0.10;;
64208;SDS011;50527;52.414;13.226;2024-01-15T12:22:30;2.20;;;0.38;;
64208;SDS011;50527;52.414;13.226;2024-01-15T12:24:55;0.75;;;0.20;;
64208;SDS011;50527;52.414;13.226;2024-01-15T12:27:22;0.40;;;0.20;;
64208;SDS011;50527;52.414;13.226;2024-01-15T12:29:48;0.55;;;0.22;;
64208;SDS011;50527;52.414;13.226;2024-01-15T12:32:14;2.92;;;0.20;;
64208;SDS011;50527;52.414;13.226;2024-01-15T12:34:39;0.55;;;0.10;;
64208;SDS011;50527;52.414;13.226;2024-01-15T12:37:06;0.17;;;0.10;;
64208;SDS011;50527;52.414;13.226;2024-01-15T12:39:36;0.10;;;0.10;;
64208;SDS011;50527;52.414;13.226;2024-01-15T12:42:02;2.70;;;0.32;;
64208;SDS011;50527;52.414;13.226;2024-01-15T12:44:28;0.63;;;0.20;;
64208;SDS011;50527;52.414;13.226;2024-01-15T12:46:54;0.82;;;0.13;;
64208;SDS011;50527;52.414;13.226;2024-01-15T12:49:20;0.45;;;0.30;;
64208;SDS011;50527;52.414;13.226;2024-01-15T12:51:53;1.77;;;0.32;;
64208;SDS011;50527;52.414;13.226;2024-01-15T12:54:19;0.85;;;0.35;;
64208;SDS011;50527;52.414;13.226;2024-01-15T12:56:45;2.70;;;0.10;;
64208;SDS011;50527;52.414;13.226;2024-01-15T12:59:10;5.18;;;0.47;;
64208;SDS011;50527;52.414;13.226;2024-01-15T13:01:36;1.17;;;0.20;;
64208;SDS011;50527;52.414;13.226;2024-01-15T13:04:01;1.83;;;0.25;;
64208;SDS011;50527;52.414;13.226;2024-01-15T13:06:28;0.47;;;0.20;;
64208;SDS011;50527;52.414;13.226;2024-01-15T13:08:53;0.68;;;0.20;;
64208;SDS011;50527;52.414;13.226;2024-01-15T13:11:19;2.65;;;0.40;;
64208;SDS011;50527;52.414;13.226;2024-01-15T13:13:44;0.68;;;0.25;;
64208;SDS011;50527;52.414;13.226;2024-01-15T13:16:10;0.40;;;0.20;;
64208;SDS011;50527;52.414;13.226;2024-01-15T13:18:35;0.85;;;0.30;;
64208;SDS011;50527;52.414;13.226;2024-01-15T13:21:01;1.05;;;0.30;;
64208;SDS011;50527;52.414;13.226;2024-01-15T13:23:27;3.47;;;0.35;;
64208;SDS011;50527;52.414;13.226;2024-01-15T13:25:53;1.08;;;0.55;;
64208;SDS011;50527;52.414;13.226;2024-01-15T13:28:20;1.13;;;0.47;;
64208;SDS011;50527;52.414;13.226;2024-01-15T13:30:46;1.15;;;0.40;;
64208;SDS011;50527;52.414;13.226;2024-01-15T13:33:12;1.45;;;0.40;;
64208;SDS011;50527;52.414;13.226;2024-01-15T13:35:38;2.05;;;0.30;;
64208;SDS011;50527;52.414;13.226;2024-01-15T13:38:03;0.70;;;0.38;;
64208;SDS011;50527;52.414;13.226;2024-01-15T13:40:29;0.98;;;0.52;;
64208;SDS011;50527;52.414;13.226;2024-01-15T13:42:54;2.58;;;0.50;;
64208;SDS011;50527;52.414;13.226;2024-01-15T13:45:20;2.55;;;0.57;;
64208;SDS011;50527;52.414;13.226;2024-01-15T13:47:46;4.90;;;0.68;;
64208;SDS011;50527;52.414;13.226;2024-01-15T13:50:11;1.83;;;0.45;;
64208;SDS011;50527;52.414;13.226;2024-01-15T13:52:37;2.03;;;0.63;;
64208;SDS011;50527;52.414;13.226;2024-01-15T13:55:02;1.83;;;0.57;;
64208;SDS011;50527;52.414;13.226;2024-01-15T13:57:28;1.13;;;0.50;;
64208;SDS011;50527;52.414;13.226;2024-01-15T13:59:54;1.08;;;0.50;;
64208;SDS011;50527;52.414;13.226;2024-01-15T14:02:20;1.48;;;0.70;;
64208;SDS011;50527;52.414;13.226;2024-01-15T14:04:45;3.40;;;0.80;;
64208;SDS011;50527;52.414;13.226;2024-01-15T14:07:12;1.05;;;0.45;;
64208;SDS011;50527;52.414;13.226;2024-01-15T14:09:37;2.00;;;0.60;;
64208;SDS011;50527;52.414;13.226;2024-01-15T14:12:03;1.23;;;0.40;;
64208;SDS011;50527;52.414;13.226;2024-01-15T14:14:29;1.15;;;0.38;;
64208;SDS011;50527;52.414;13.226;2024-01-15T14:16:54;2.92;;;0.50;;
64208;SDS011;50527;52.414;13.226;2024-01-15T14:19:20;1.70;;;0.65;;
64208;SDS011;50527;52.414;13.226;2024-01-15T14:21:45;4.95;;;0.60;;
64208;SDS011;50527;52.414;13.226;2024-01-15T14:24:11;3.33;;;0.60;;
64208;SDS011;50527;52.414;13.226;2024-01-15T14:26:36;2.53;;;0.40;;
64208;SDS011;50527;52.414;13.226;2024-01-15T14:29:02;1.65;;;0.35;;
64208;SDS011;50527;52.414;13.226;2024-01-15T14:31:27;3.28;;;0.40;;
64208;SDS011;50527;52.414;13.226;2024-01-15T14:33:53;2.20;;;0.35;;
64208;SDS011;50527;52.414;13.226;2024-01-15T14:36:20;1.20;;;0.30;;
64208;SDS011;50527;52.414;13.226;2024-01-15T14:38:45;1.58;;;0.50;;